首页
METAR-TAF:

METAR-TAF

机场 :

苏丹依斯迈布特拉机场

哥打巴鲁, 马来西亚

纬度: 06-10N, 经度: 102-17E, 海拔: 5米

当前天气观测

该预报发布于23分钟前的06:00 UTC
风速11节,风向东转东北,在北转东北东南之间变化
温度 34°C
湿度 63%
气压 1007 hPa
能见度10公里或以上
少量云层高于1800英尺

METAR: WMKC 220600Z 07011KT 020V140 9999 FEW018 34/26 Q1007

时间: 14:23 (06:23 UTC)

预报

该预报发布于1小时和23分钟前的05:00 UTC
预报有效从22日的 06点(UTC)到 23日的 06点(UTC)
风速5节,风向
能见度10公里或以上
少量云层高于1800英尺

TAF: WMKC 220500Z 2206/2306 08005KT 9999 FEW018

超过4000个机场的气象观测和天气预报(METAR&TAF报告)。

可查询的气象台以黄色和红色小点在地图上表示。

将鼠标移到小点上方,可查看气象台名称。

然后点击查看天气观测和预报。

如需切换地图:点击带黑十字的绿色按钮放大地图;点击带横线的绿色按钮缩小地图;或者点击绿色箭头查看邻近地区的地图。


METAR-TAF: